Terminal Aerodrome Forecast
Issued by NWS

Home | Current Version | Previous Version | Text Only | Print | Product List | Glossary On
Versions: 1 2 3 4 5 6 7 8 9 10 11 12 13 14 15
989
FTUS43 KMQT 212340
TAFCMX
TAF
KCMX 212340Z 2200/2224 09004KT P6SM -SHRA BKN080
     FM220400 06003KT P6SM VCSH BKN025
     FM220700 36003KT P6SM BKN015
     FM221100 30009KT P6SM SCT025
     FM221400 30013G21KT P6SM SCT050=

USA.gov is the U.S. government's official web portal to all federal, state and local government web resources and services.